SBMO

Zumbi dos Palmares Airport

Maceió, Brazil
TAF SBMO 162130Z 1700/1724 31004KT 8000 SCT020 TN18/1708Z TX28/1716Z BECMG 1710/1712 13008KT RMK PEA
Issued Valid From Valid To
Jul-16 @ 21:30 UTC
(3 hours ago)
Jul-17 @ 00:00 UTC
(27 minutes ago)
Jul-18 @ 00:00 UTC
(in 24 hours)
Jul-17 @ 00:00 to Jul-17 @ 10:00
TAF SBMO 162130Z 1700/1724 31004KT 8000 SCT020 TN18/1708Z TX28/1716Z
Wind Visibility Clouds
310° at 4 knots 7,998 meters
  • Scattered at 2,000' AGL
Becoming Jul-17 @ 10:00 to Jul-18 @ 00:00
BECMG 1710/1712 13008KT RMK PEA
Wind Visibility Clouds
130° at 8 knots 7,998 meters
  • Scattered at 2,000' AGL
TAF SBMO 162130Z 1700/1724 31004KT 8000 SCT020 TN18/1708Z TX28/1716Z BECMG 1710/1712 13008KT RMK PEA
Issued Jul-16 @ 21:30 UTC
(3 hours ago)
Valid From Jul-17 @ 00:00 UTC
(27 minutes ago)
Valid To Jul-18 @ 00:00 UTC
(in 24 hours)
Jul-17 @ 00:00 - Jul-17 @ 10:00
Wind Visibility
310° at 4 knots 7,998 meters
Clouds
  • Scattered at 2,000' AGL
Becoming Jul-17 @ 10:00 - Jul-18 @ 00:00
Wind Visibility
130° at 8 knots 7,998 meters
Clouds
  • Scattered at 2,000' AGL